createdAt,value
2023-05-19T00:01:43.956Z,102198.97
2023-05-19T00:04:50.650Z,102197.78
2023-05-19T00:07:57.122Z,102200.34
2023-05-19T00:11:01.163Z,102208.84
2023-05-19T00:14:09.520Z,102212.25
2023-05-19T00:17:13.333Z,102202.94
2023-05-19T00:20:16.669Z,102205.47
2023-05-19T00:23:19.877Z,102204.03
2023-05-19T00:26:23.565Z,102201.38
2023-05-19T00:29:40.204Z,102209.75
2023-05-19T00:32:43.438Z,102198.53
2023-05-19T00:35:46.621Z,102202.06
2023-05-19T00:38:51.150Z,102206.81
2023-05-19T00:41:55.412Z,102206.69
2023-05-19T00:44:59.911Z,102194.06
2023-05-19T00:48:03.277Z,102185.50
2023-05-19T00:51:06.866Z,102195.94
2023-05-19T00:54:10.716Z,102196.41
2023-05-19T00:57:15.706Z,102195.38
2023-05-19T01:00:20.479Z,102199.84
2023-05-19T01:03:26.723Z,102200.09
2023-05-19T01:06:29.919Z,102203.00
2023-05-19T01:09:33.236Z,102199.66
2023-05-19T01:12:37.885Z,102200.06
2023-05-19T01:15:59.670Z,102201.50
2023-05-19T01:19:15.021Z,102198.22
2023-05-19T01:22:43.722Z,102195.06
2023-05-19T01:26:27.926Z,102189.31
2023-05-19T01:29:43.759Z,102196.13
2023-05-19T01:32:52.532Z,102197.84
2023-05-19T01:35:57.392Z,102197.44
2023-05-19T01:39:02.455Z,102199.31
2023-05-19T01:42:07.987Z,102203.00
2023-05-19T01:45:13.345Z,102204.78
2023-05-19T01:48:19.741Z,102205.19
2023-05-19T01:51:25.810Z,102199.84
2023-05-19T01:54:29.048Z,102202.38
2023-05-19T01:57:44.881Z,102198.94
2023-05-19T02:00:55.114Z,102202.72
2023-05-19T02:04:20.302Z,102198.53
2023-05-19T02:07:34.642Z,102193.50
2023-05-19T02:10:52.188Z,102205.56
2023-05-19T02:13:58.260Z,102203.28
2023-05-19T02:17:03.019Z,102198.84
2023-05-19T02:20:11.713Z,102200.53
2023-05-19T02:23:15.027Z,102207.84
2023-05-19T02:26:18.414Z,102201.66
2023-05-19T02:29:22.344Z,102204.31
2023-05-19T02:32:29.882Z,102199.75
2023-05-19T02:35:34.640Z,102199.69
2023-05-19T02:38:37.921Z,102191.84
2023-05-19T02:41:41.157Z,102187.16
2023-05-19T02:44:45.640Z,102187.81
2023-05-19T02:47:48.938Z,102196.22
2023-05-19T02:50:53.462Z,102189.09
2023-05-19T02:53:56.893Z,102188.97
2023-05-19T02:57:00.497Z,102190.47
2023-05-19T03:00:05.546Z,102187.78
2023-05-19T03:03:10.394Z,102186.72
2023-05-19T03:06:16.842Z,102186.63
2023-05-19T03:09:23.280Z,102187.00
2023-05-19T03:12:26.796Z,102179.94
2023-05-19T03:15:30.726Z,102176.66
2023-05-19T03:18:34.231Z,102171.59
2023-05-19T03:21:38.790Z,102180.41
2023-05-19T03:24:42.291Z,102178.94
2023-05-19T03:27:45.681Z,102179.78
2023-05-19T03:30:50.680Z,102184.06
2023-05-19T03:33:58.385Z,102181.84
2023-05-19T03:37:02.971Z,102183.28
2023-05-19T03:40:08.911Z,102187.22
2023-05-19T03:43:14.437Z,102184.47
2023-05-19T03:46:23.058Z,102180.94
2023-05-19T03:49:38.395Z,102180.78
2023-05-19T03:53:01.810Z,102179.44
2023-05-19T03:56:11.646Z,102175.88
2023-05-19T03:59:16.204Z,102178.19
2023-05-19T04:02:19.678Z,102180.22
2023-05-19T04:05:24.612Z,102178.22
2023-05-19T04:08:29.190Z,102177.94
2023-05-19T04:11:32.902Z,102178.50
2023-05-19T04:14:36.367Z,102181.59
2023-05-19T04:17:40.022Z,102178.66
2023-05-19T04:20:43.314Z,102172.34
2023-05-19T04:23:47.964Z,102175.78
2023-05-19T04:26:54.915Z,102180.16
2023-05-19T04:29:59.522Z,102183.47
2023-05-19T04:33:03.963Z,102189.47
2023-05-19T04:36:10.502Z,102189.72
2023-05-19T04:39:17.916Z,102187.78
2023-05-19T04:42:22.470Z,102185.69
2023-05-19T04:45:26.805Z,102187.25
2023-05-19T04:48:33.478Z,102201.09
2023-05-19T04:51:44.925Z,102192.34
2023-05-19T04:54:54.664Z,102188.63
2023-05-19T04:58:01.077Z,102194.34
2023-05-19T05:01:05.111Z,102194.34
2023-05-19T05:04:08.883Z,102193.19
2023-05-19T05:07:12.712Z,102188.53
2023-05-19T05:10:19.780Z,102186.34
2023-05-19T05:13:26.583Z,102181.75
2023-05-19T05:16:35.505Z,102185.72
2023-05-19T05:20:00.129Z,102190.81
2023-05-19T05:23:05.181Z,102191.72
2023-05-19T05:26:18.670Z,102189.13
2023-05-19T05:29:25.380Z,102190.22
2023-05-19T05:32:30.071Z,102191.63
2023-05-19T05:35:36.360Z,102182.78
2023-05-19T05:38:40.823Z,102191.09
2023-05-19T05:41:45.689Z,102195.25
2023-05-19T05:44:49.729Z,102195.03
2023-05-19T05:47:54.481Z,102194.34
2023-05-19T05:51:01.094Z,102184.31
2023-05-19T05:54:10.344Z,102191.13
2023-05-19T05:57:22.179Z,102192.50
2023-05-19T06:00:28.179Z,102199.81
2023-05-19T06:03:32.074Z,102198.16
2023-05-19T06:06:39.807Z,102188.50
2023-05-19T06:09:44.270Z,102185.88
2023-05-19T06:12:48.939Z,102185.28
2023-05-19T06:15:53.706Z,102185.03
2023-05-19T06:19:01.757Z,102179.19
2023-05-19T06:22:05.788Z,102179.63
2023-05-19T06:25:11.103Z,102173.28
2023-05-19T06:28:16.156Z,102173.38
2023-05-19T06:31:20.360Z,102167.00
2023-05-19T06:34:28.539Z,102180.25
2023-05-19T06:37:31.895Z,102176.91
2023-05-19T06:40:38.388Z,102177.84
2023-05-19T06:43:50.298Z,102180.34
2023-05-19T06:46:59.500Z,102179.03
2023-05-19T06:50:13.102Z,102181.44
2023-05-19T06:53:33.995Z,102186.06
2023-05-19T06:56:43.020Z,102176.69
2023-05-19T06:59:48.577Z,102171.06
2023-05-19T07:02:55.350Z,102178.28
2023-05-19T07:05:58.843Z,102184.53
2023-05-19T07:09:02.096Z,102171.41
2023-05-19T07:12:07.477Z,102182.19
2023-05-19T07:15:16.035Z,102176.72
2023-05-19T07:18:20.312Z,102184.97
2023-05-19T07:21:26.501Z,102182.25
2023-05-19T07:24:30.560Z,102185.66
2023-05-19T07:27:34.693Z,102188.31
2023-05-19T07:30:39.544Z,102187.16
2023-05-19T07:33:42.830Z,102184.81
2023-05-19T07:36:46.257Z,102190.06
2023-05-19T07:39:49.521Z,102184.31
2023-05-19T07:42:55.738Z,102177.13
2023-05-19T07:46:01.032Z,102176.34
2023-05-19T07:49:04.635Z,102173.25
2023-05-19T07:52:08.463Z,102167.25
2023-05-19T07:55:15.151Z,102164.88
2023-05-19T07:58:19.647Z,102167.97
2023-05-19T08:01:26.992Z,102171.25
2023-05-19T08:04:30.448Z,102171.50
2023-05-19T08:07:33.850Z,102162.28
2023-05-19T08:10:37.457Z,102162.03
2023-05-19T08:14:07.214Z,102158.16
2023-05-19T08:17:20.303Z,102163.41
2023-05-19T08:20:26.510Z,102165.38
2023-05-19T08:23:32.556Z,102171.47
2023-05-19T08:26:37.737Z,102174.66
2023-05-19T08:29:44.875Z,102176.03
2023-05-19T08:32:49.654Z,102177.56
2023-05-19T08:35:58.154Z,102181.53
2023-05-19T08:39:01.498Z,102176.41
2023-05-19T08:42:09.941Z,102175.41
2023-05-19T08:45:25.822Z,102175.41
2023-05-19T08:48:34.510Z,102171.84
2023-05-19T08:51:48.434Z,102160.56
2023-05-19T08:55:01.188Z,102167.78
2023-05-19T08:58:05.918Z,102172.78
2023-05-19T09:01:09.841Z,102158.66
2023-05-19T09:04:17.950Z,102152.72
2023-05-19T09:07:22.918Z,102154.50
2023-05-19T09:10:28.443Z,102140.34
2023-05-19T09:13:32.558Z,102144.56
2023-05-19T09:16:38.769Z,102139.59
2023-05-19T09:19:49.358Z,102138.34
2023-05-19T09:22:53.690Z,102123.28
2023-05-19T09:26:03.805Z,102125.41
2023-05-19T09:29:18.212Z,102123.91
2023-05-19T09:32:30.136Z,102121.13
2023-05-19T09:35:38.441Z,102130.47
2023-05-19T09:38:43.659Z,102128.69
2023-05-19T09:41:51.312Z,102130.81
2023-05-19T09:45:01.803Z,102131.56
2023-05-19T09:48:10.382Z,102127.50
2023-05-19T09:51:22.998Z,102124.53
2023-05-19T09:54:34.953Z,102116.00
2023-05-19T09:57:40.285Z,102111.81
2023-05-19T10:00:44.011Z,102120.13
2023-05-19T10:03:47.511Z,102114.75
2023-05-19T10:06:54.405Z,102106.91
2023-05-19T10:10:00.912Z,102097.03
2023-05-19T10:13:06.786Z,102104.88
2023-05-19T10:16:12.090Z,102100.59
2023-05-19T10:19:18.617Z,102095.66
2023-05-19T10:22:23.560Z,102095.69
2023-05-19T10:25:37.838Z,102097.69
2023-05-19T10:28:50.275Z,102099.44
2023-05-19T10:31:56.693Z,102100.84
2023-05-19T10:35:47.301Z,102104.16
2023-05-19T10:39:03.541Z,102094.22
2023-05-19T10:42:17.901Z,102106.50
2023-05-19T10:45:25.235Z,102095.09
2023-05-19T10:48:34.500Z,102095.19
2023-05-19T10:51:38.522Z,102088.16
2023-05-19T10:54:47.135Z,102086.59
2023-05-19T10:57:57.661Z,102088.75
2023-05-19T11:01:02.080Z,102074.16
2023-05-19T11:04:12.303Z,102069.84
2023-05-19T11:07:20.600Z,102073.94
2023-05-19T11:10:26.271Z,102067.63
2023-05-19T11:13:30.090Z,102067.97
2023-05-19T11:16:34.097Z,102079.38
2023-05-19T11:19:37.674Z,102084.88
2023-05-19T11:22:41.503Z,102081.03
2023-05-19T11:25:51.422Z,102057.94
2023-05-19T11:28:55.306Z,102061.53
2023-05-19T11:31:58.891Z,102065.81
2023-05-19T11:35:08.248Z,102059.22
2023-05-19T11:38:12.780Z,102059.72
2023-05-19T11:41:20.693Z,102061.41
2023-05-19T11:44:24.485Z,102059.47
2023-05-19T11:47:30.797Z,102054.22
2023-05-19T11:50:38.454Z,102045.69
2023-05-19T11:53:42.012Z,102056.25
2023-05-19T11:56:46.646Z,102044.31
2023-05-19T11:59:52.376Z,102049.56
2023-05-19T12:02:55.813Z,102052.50
2023-05-19T12:05:59.280Z,102043.84
2023-05-19T12:09:03.402Z,102043.69
2023-05-19T12:12:09.175Z,102049.69
2023-05-19T12:15:13.260Z,102038.53
2023-05-19T12:18:16.560Z,102047.44
2023-05-19T12:21:19.884Z,102043.44
2023-05-19T12:24:23.466Z,102045.47
2023-05-19T12:27:28.745Z,102036.84
2023-05-19T12:30:33.630Z,102037.34
2023-05-19T12:33:44.080Z,102044.94
2023-05-19T12:36:47.772Z,102035.19
2023-05-19T12:39:53.585Z,102047.16
2023-05-19T12:42:59.807Z,102039.03
2023-05-19T12:46:11.552Z,102040.78
2023-05-19T12:49:16.625Z,102029.66
2023-05-19T12:52:23.061Z,102022.56
2023-05-19T12:55:27.222Z,102026.38
2023-05-19T12:58:35.277Z,102017.19
2023-05-19T13:01:48.926Z,102023.94
2023-05-19T13:04:58.806Z,102018.69
2023-05-19T13:08:09.903Z,102023.72
2023-05-19T13:11:18.069Z,102012.81
2023-05-19T13:14:42.585Z,102020.88
2023-05-19T13:18:06.501Z,102022.56
2023-05-19T13:21:10.255Z,102020.69
2023-05-19T13:24:13.566Z,102014.59
2023-05-19T13:27:16.964Z,102033.41
2023-05-19T13:30:22.757Z,102018.03
2023-05-19T13:33:26.105Z,102023.47
2023-05-19T13:36:29.662Z,102014.72
2023-05-19T13:39:33.299Z,102012.59
2023-05-19T13:42:36.942Z,102010.63
2023-05-19T13:45:42.739Z,102003.13
2023-05-19T13:48:46.354Z,102016.50
2023-05-19T13:51:49.926Z,102021.94
2023-05-19T13:54:54.573Z,102001.69
2023-05-19T13:57:58.110Z,102008.69
2023-05-19T14:01:02.810Z,102025.69
2023-05-19T14:04:07.277Z,102012.28
2023-05-19T14:07:10.885Z,102016.72
2023-05-19T14:10:14.211Z,102035.97
2023-05-19T14:13:32.557Z,102027.75
2023-05-19T14:16:39.041Z,102010.09
2023-05-19T14:19:42.541Z,102007.00
2023-05-19T14:22:46.937Z,102009.13
2023-05-19T14:25:50.252Z,102007.59
2023-05-19T14:28:53.803Z,102022.78
2023-05-19T14:31:58.591Z,102017.38
2023-05-19T14:35:06.397Z,102026.75
2023-05-19T14:38:09.766Z,102020.13
2023-05-19T14:41:13.483Z,102014.22
2023-05-19T14:44:16.810Z,102027.25
2023-05-19T14:47:21.700Z,102037.09
2023-05-19T14:50:25.757Z,102023.31
2023-05-19T14:53:30.346Z,102022.56
2023-05-19T14:56:33.605Z,102014.84
2023-05-19T14:59:38.424Z,102019.09
2023-05-19T15:02:43.565Z,102017.41
2023-05-19T15:05:46.971Z,102027.88
2023-05-19T15:08:50.264Z,102032.72
2023-05-19T15:11:53.861Z,102021.69
2023-05-19T15:14:57.757Z,102024.97
2023-05-19T15:18:02.351Z,102020.94
2023-05-19T15:21:06.296Z,102016.72
2023-05-19T15:24:09.630Z,102021.34
2023-05-19T15:27:13.015Z,102021.44
2023-05-19T15:30:16.683Z,102011.31
2023-05-19T15:33:21.325Z,102014.69
2023-05-19T15:36:24.922Z,102011.50
2023-05-19T15:39:28.335Z,102015.16
2023-05-19T15:42:31.669Z,102024.00
2023-05-19T15:45:35.072Z,102014.53
2023-05-19T15:48:39.638Z,102012.84
2023-05-19T15:51:43.446Z,102012.50
2023-05-19T15:54:47.870Z,102002.88
2023-05-19T15:57:54.205Z,102022.00
2023-05-19T16:00:57.891Z,102016.28
2023-05-19T16:04:03.914Z,102021.81
2023-05-19T16:07:07.368Z,102024.97
2023-05-19T16:10:11.152Z,102014.59
2023-05-19T16:13:14.810Z,102009.19
2023-05-19T16:16:20.540Z,102008.19
2023-05-19T16:19:25.420Z,102003.06
2023-05-19T16:22:30.365Z,102004.19
2023-05-19T16:25:33.890Z,102007.78
2023-05-19T16:28:39.628Z,102005.47
2023-05-19T16:31:43.065Z,102001.03
2023-05-19T16:34:51.210Z,102004.00
2023-05-19T16:37:54.538Z,102005.25
2023-05-19T16:41:00.795Z,102006.19
2023-05-19T16:44:04.132Z,101994.47
2023-05-19T16:47:07.700Z,101999.16
2023-05-19T16:50:13.787Z,101999.06
2023-05-19T16:53:17.434Z,102004.81
2023-05-19T16:56:22.049Z,101998.94
2023-05-19T16:59:25.325Z,101995.81
2023-05-19T17:02:29.074Z,101988.56
2023-05-19T17:05:39.321Z,101996.44
2023-05-19T17:08:43.042Z,101999.09
2023-05-19T17:11:46.399Z,101998.22
2023-05-19T17:14:53.905Z,101999.06
2023-05-19T17:18:00.904Z,102002.66
2023-05-19T17:21:05.936Z,102003.97
2023-05-19T17:24:12.063Z,102001.97
2023-05-19T17:27:16.284Z,101996.44
2023-05-19T17:30:23.274Z,101993.06
2023-05-19T17:33:27.109Z,102001.22
2023-05-19T17:36:32.170Z,101999.56
2023-05-19T17:39:41.150Z,102006.59
2023-05-19T17:42:47.935Z,102008.88
2023-05-19T17:45:53.134Z,102013.31
2023-05-19T17:48:59.251Z,102009.59
2023-05-19T17:52:04.956Z,102033.66
2023-05-19T17:55:11.079Z,102025.34
2023-05-19T17:58:17.664Z,102028.47
2023-05-19T18:01:24.195Z,102031.03
2023-05-19T18:04:28.529Z,102023.78
2023-05-19T18:07:39.167Z,102017.91
2023-05-19T18:10:44.514Z,102019.22
2023-05-19T18:13:51.948Z,102017.53
2023-05-19T18:17:02.197Z,102015.72
2023-05-19T18:20:13.346Z,102014.94
2023-05-19T18:23:19.822Z,102015.50
2023-05-19T18:26:23.838Z,102017.44
2023-05-19T18:29:27.300Z,102013.72
2023-05-19T18:32:30.919Z,102018.72
2023-05-19T18:35:34.461Z,102028.53
2023-05-19T18:38:40.967Z,102038.75
2023-05-19T18:41:47.586Z,102043.00
2023-05-19T18:44:51.251Z,102034.94
2023-05-19T18:47:54.584Z,102034.69
2023-05-19T18:50:58.038Z,102037.88
2023-05-19T18:54:08.390Z,102036.59
2023-05-19T18:57:11.586Z,102053.31
2023-05-19T19:00:15.909Z,102047.78
2023-05-19T19:03:19.180Z,102044.66
2023-05-19T19:06:23.393Z,102047.28
2023-05-19T19:09:28.230Z,102036.69
2023-05-19T19:12:34.855Z,102041.72
2023-05-19T19:15:39.757Z,102034.50
2023-05-19T19:18:45.909Z,102039.50
2023-05-19T19:21:50.841Z,102034.56
2023-05-19T19:24:57.986Z,102039.31
2023-05-19T19:28:07.114Z,102048.44
2023-05-19T19:31:10.555Z,102039.41
2023-05-19T19:34:15.041Z,102050.75
2023-05-19T19:37:20.765Z,102052.00
2023-05-19T19:40:25.894Z,102056.94
2023-05-19T19:43:29.314Z,102054.13
2023-05-19T19:46:32.759Z,102057.91
2023-05-19T19:49:52.500Z,102045.59
2023-05-19T19:52:55.766Z,102043.91
2023-05-19T19:56:08.648Z,102041.91
2023-05-19T19:59:13.143Z,102050.94
2023-05-19T20:02:16.368Z,102053.97
2023-05-19T20:05:20.210Z,102051.53
2023-05-19T20:08:23.899Z,102055.09
2023-05-19T20:11:28.634Z,102058.56
2023-05-19T20:14:32.191Z,102050.78
2023-05-19T20:17:35.732Z,102058.38
2023-05-19T20:20:40.965Z,102057.00
2023-05-19T20:23:44.285Z,102057.94
2023-05-19T20:26:48.868Z,102067.47
2023-05-19T20:29:52.201Z,102059.81
2023-05-19T20:32:55.735Z,102061.44
2023-05-19T20:35:59.175Z,102068.38
2023-05-19T20:39:03.702Z,102075.41
2023-05-19T20:42:08.911Z,102080.75
2023-05-19T20:45:12.475Z,102081.69
2023-05-19T20:48:18.273Z,102085.47
2023-05-19T20:51:22.308Z,102086.84
2023-05-19T20:54:26.148Z,102079.78
2023-05-19T20:57:30.869Z,102079.88
2023-05-19T21:00:37.301Z,102077.56
2023-05-19T21:03:40.912Z,102087.47
2023-05-19T21:06:44.529Z,102076.34
2023-05-19T21:09:50.357Z,102072.16
2023-05-19T21:12:56.251Z,102077.03
2023-05-19T21:16:00.160Z,102070.09
2023-05-19T21:19:03.571Z,102083.47
2023-05-19T21:22:07.501Z,102083.69
2023-05-19T21:25:11.276Z,102087.63
2023-05-19T21:28:15.981Z,102093.53
2023-05-19T21:31:20.033Z,102092.97
2023-05-19T21:34:24.350Z,102089.13
2023-05-19T21:37:27.644Z,102087.94
2023-05-19T21:40:33.808Z,102097.63
2023-05-19T21:43:38.584Z,102104.75
2023-05-19T21:46:46.259Z,102105.97
2023-05-19T21:49:50.145Z,102106.22
2023-05-19T21:52:53.457Z,102106.81
2023-05-19T21:55:58.356Z,102108.47
2023-05-19T21:59:03.022Z,102108.09
2023-05-19T22:02:06.866Z,102116.13
2023-05-19T22:05:11.843Z,102109.31
2023-05-19T22:08:16.450Z,102101.16
2023-05-19T22:11:20.204Z,102109.94
2023-05-19T22:14:26.649Z,102111.22
2023-05-19T22:17:31.746Z,102104.50
2023-05-19T22:20:35.586Z,102107.28
2023-05-19T22:23:38.934Z,102103.06
2023-05-19T22:26:43.122Z,102102.75
2023-05-19T22:29:47.724Z,102103.00
2023-05-19T22:32:51.276Z,102107.03
2023-05-19T22:35:54.698Z,102108.22
2023-05-19T22:38:57.980Z,102112.88
2023-05-19T22:42:01.783Z,102117.44
2023-05-19T22:45:07.881Z,102113.91
2023-05-19T22:48:11.616Z,102119.88
2023-05-19T22:51:14.906Z,102115.84
2023-05-19T22:54:18.298Z,102123.84
2023-05-19T22:57:21.835Z,102125.56
2023-05-19T23:00:26.749Z,102125.50
2023-05-19T23:03:30.053Z,102130.88
2023-05-19T23:06:33.447Z,102131.06
2023-05-19T23:09:36.808Z,102120.19
2023-05-19T23:12:40.699Z,102126.78
2023-05-19T23:15:45.299Z,102127.97
2023-05-19T23:18:48.655Z,102122.06
2023-05-19T23:21:52.036Z,102123.91
2023-05-19T23:24:57.779Z,102118.69
2023-05-19T23:28:01.162Z,102121.44
2023-05-19T23:31:05.846Z,102121.78
2023-05-19T23:34:09.410Z,102124.00
2023-05-19T23:37:12.658Z,102113.59
2023-05-19T23:40:16.858Z,102117.00
2023-05-19T23:43:20.240Z,102122.38
2023-05-19T23:46:24.917Z,102116.03
2023-05-19T23:49:28.305Z,102105.75
2023-05-19T23:52:32.787Z,102118.81
2023-05-19T23:55:36.434Z,102119.31
2023-05-19T23:58:39.960Z,102114.41
